createdAt,value
2023-01-07T00:04:16.255Z,7.55
2023-01-07T00:09:19.544Z,6.61
2023-01-07T00:14:27.601Z,7.40
2023-01-07T00:19:31.008Z,7.25
2023-01-07T00:24:34.493Z,7.28
2023-01-07T00:29:38.021Z,7.54
2023-01-07T00:34:41.325Z,7.51
2023-01-07T00:39:44.590Z,7.47
2023-01-07T00:44:48.027Z,7.57
2023-01-07T00:49:51.325Z,6.22
2023-01-07T00:54:54.578Z,7.09
2023-01-07T00:59:57.913Z,6.92
2023-01-07T01:05:01.176Z,7.43
2023-01-07T01:10:18.660Z,6.66
2023-01-07T01:15:22.089Z,6.17
2023-01-07T01:20:25.584Z,7.57
2023-01-07T01:25:28.937Z,6.71
2023-01-07T01:30:32.299Z,7.58
2023-01-07T01:35:40.570Z,7.56
2023-01-07T01:40:44.103Z,7.19
2023-01-07T01:45:47.514Z,7.63
2023-01-07T01:50:52.715Z,7.42
2023-01-07T01:56:01.927Z,7.52
2023-01-07T02:01:05.737Z,7.38
2023-01-07T02:06:18.359Z,7.04
2023-01-07T02:11:47.522Z,7.42
2023-01-07T02:17:08.765Z,7.49
2023-01-07T02:22:35.542Z,7.17
2023-01-07T02:28:00.609Z,7.51
2023-01-07T02:33:09.637Z,7.42
2023-01-07T02:38:48.314Z,6.95
2023-01-07T02:44:26.764Z,7.50
2023-01-07T02:49:30.060Z,7.10
2023-01-07T02:54:33.432Z,7.30
2023-01-07T03:00:18.958Z,7.42
2023-01-07T03:05:34.069Z,7.45
2023-01-07T03:10:47.387Z,7.54
2023-01-07T03:16:13.699Z,7.59
2023-01-07T03:21:20.977Z,7.29
2023-01-07T03:26:30.754Z,6.96
2023-01-07T03:31:35.651Z,7.49
2023-01-07T03:36:54.535Z,7.29
2023-01-07T03:42:16.668Z,7.04
2023-01-07T03:47:20.345Z,6.12
2023-01-07T03:52:24.832Z,6.57
2023-01-07T03:57:28.217Z,6.68
2023-01-07T04:02:31.627Z,6.18
2023-01-07T04:07:35.376Z,6.34
2023-01-07T04:12:39.030Z,7.06
2023-01-07T04:17:48.356Z,6.92
2023-01-07T04:23:01.697Z,6.56
2023-01-07T04:28:05.549Z,6.76
2023-01-07T04:33:09.081Z,6.92
2023-01-07T04:38:12.643Z,7.30
2023-01-07T04:43:25.959Z,7.25
2023-01-07T04:48:30.177Z,6.66
2023-01-07T04:53:33.834Z,7.07
2023-01-07T04:58:47.181Z,6.92
2023-01-07T05:03:50.584Z,7.09
2023-01-07T05:08:54.042Z,7.10
2023-01-07T05:14:01.149Z,7.13
2023-01-07T05:19:05.595Z,7.03
2023-01-07T05:24:09.614Z,7.30
2023-01-07T05:29:13.027Z,7.02
2023-01-07T05:34:16.554Z,7.30
2023-01-07T05:39:19.930Z,6.54
2023-01-07T05:44:23.707Z,6.18
2023-01-07T05:49:26.982Z,7.43
2023-01-07T05:54:40.696Z,6.88
2023-01-07T05:59:53.981Z,7.04
2023-01-07T06:04:57.329Z,7.27
2023-01-07T06:10:02.787Z,7.44
2023-01-07T06:15:08.403Z,7.42
2023-01-07T06:20:12.608Z,7.46
2023-01-07T06:25:16.043Z,7.49
2023-01-07T06:30:19.405Z,7.08
2023-01-07T06:35:22.835Z,7.10
2023-01-07T06:40:26.108Z,7.43
2023-01-07T06:45:29.685Z,7.07
2023-01-07T06:50:33.092Z,7.21
2023-01-07T06:55:37.610Z,7.64
2023-01-07T07:00:41.113Z,7.40
2023-01-07T07:05:44.560Z,6.45
2023-01-07T07:10:47.990Z,6.97
2023-01-07T07:15:51.840Z,7.17
2023-01-07T07:20:55.149Z,6.81
2023-01-07T07:25:59.140Z,7.33
2023-01-07T07:31:02.670Z,6.58
2023-01-07T07:36:06.389Z,7.21
2023-01-07T07:41:09.947Z,7.52
2023-01-07T07:46:23.563Z,7.23
2023-01-07T07:51:26.890Z,7.50
2023-01-07T07:56:30.542Z,6.19
2023-01-07T08:01:37.316Z,6.52
2023-01-07T08:06:40.872Z,7.62
2023-01-07T08:11:44.181Z,7.10
2023-01-07T08:16:47.578Z,7.56
2023-01-07T08:21:52.387Z,6.59
2023-01-07T08:27:03.900Z,7.64
2023-01-07T08:32:07.367Z,7.00
2023-01-07T08:37:11.698Z,7.69
2023-01-07T08:42:15.045Z,7.09
2023-01-07T08:47:18.324Z,7.46
2023-01-07T08:52:22.622Z,7.18
2023-01-07T08:57:26.394Z,6.42
2023-01-07T09:02:29.710Z,6.46
2023-01-07T09:07:33.463Z,7.08
2023-01-07T09:12:37.015Z,7.98
2023-01-07T09:17:40.372Z,7.05
2023-01-07T09:22:44.693Z,7.94
2023-01-07T09:27:58.054Z,7.29
2023-01-07T09:33:01.337Z,7.36
2023-01-07T09:38:04.809Z,7.42
2023-01-07T09:43:16.833Z,7.98
2023-01-07T09:48:48.538Z,8.11
2023-01-07T09:54:02.576Z,7.61
2023-01-07T09:59:07.268Z,7.39
2023-01-07T10:04:35.199Z,7.36
2023-01-07T10:09:53.369Z,8.00
2023-01-07T10:15:20.393Z,7.63
2023-01-07T10:20:38.548Z,8.05
2023-01-07T10:25:48.342Z,8.04
2023-01-07T10:30:55.047Z,7.85
2023-01-07T10:36:41.405Z,7.99
2023-01-07T10:42:06.909Z,7.88
2023-01-07T10:47:18.981Z,7.89
2023-01-07T10:52:40.860Z,7.89
2023-01-07T10:57:54.124Z,7.82
2023-01-07T11:02:59.799Z,7.74
2023-01-07T11:08:05.810Z,7.69
2023-01-07T11:13:25.287Z,7.01
2023-01-07T11:18:46.657Z,7.43
2023-01-07T11:23:51.736Z,6.59
2023-01-07T11:29:24.490Z,6.38
2023-01-07T11:34:33.001Z,6.65
2023-01-07T11:39:37.064Z,7.62
2023-01-07T11:44:50.336Z,6.88
2023-01-07T11:49:53.675Z,7.79
2023-01-07T11:54:56.985Z,6.33
2023-01-07T12:00:14.369Z,7.11
2023-01-07T12:05:25.612Z,7.54
2023-01-07T12:10:36.637Z,7.97
2023-01-07T12:15:50.537Z,6.68
2023-01-07T12:21:26.989Z,7.63
2023-01-07T12:26:39.607Z,6.79
2023-01-07T12:32:11.841Z,8.07
2023-01-07T12:37:38.482Z,8.04
2023-01-07T12:42:45.424Z,8.07
2023-01-07T12:47:53.346Z,6.94
2023-01-07T12:52:59.685Z,8.17
2023-01-07T12:58:21.666Z,8.24
2023-01-07T13:03:45.135Z,8.04
2023-01-07T13:08:58.313Z,8.25
2023-01-07T13:14:01.937Z,7.23
2023-01-07T13:19:09.238Z,7.58
2023-01-07T13:24:54.524Z,8.47
2023-01-07T13:30:32.666Z,8.19
2023-01-07T13:36:15.600Z,8.35
2023-01-07T13:41:53.510Z,8.35
2023-01-07T13:47:10.151Z,8.52
2023-01-07T13:52:13.590Z,8.40
2023-01-07T13:57:32.152Z,8.35
2023-01-07T14:02:57.326Z,8.40
2023-01-07T14:08:04.497Z,8.46
2023-01-07T14:13:34.497Z,8.34
2023-01-07T14:18:56.488Z,7.94
2023-01-07T14:24:09.066Z,7.61
2023-01-07T14:29:46.950Z,6.95
2023-01-07T14:35:02.083Z,8.05
2023-01-07T14:40:27.499Z,7.99
2023-01-07T14:45:37.181Z,7.95
2023-01-07T14:51:05.336Z,7.92
2023-01-07T14:56:33.215Z,7.84
2023-01-07T15:01:59.280Z,7.64
2023-01-07T15:07:04.819Z,7.42
2023-01-07T15:12:37.758Z,6.62
2023-01-07T15:17:51.177Z,7.45
2023-01-07T15:23:16.112Z,7.46
2023-01-07T15:28:55.706Z,7.40
2023-01-07T15:34:15.517Z,7.34
2023-01-07T15:39:24.133Z,7.41
2023-01-07T15:44:41.018Z,7.09
2023-01-07T15:49:44.583Z,6.99
2023-01-07T15:54:48.024Z,5.80
2023-01-07T15:59:54.316Z,6.49
2023-01-07T16:05:03.263Z,7.20
2023-01-07T16:10:08.042Z,7.01
2023-01-07T16:15:33.257Z,6.64
2023-01-07T16:20:42.408Z,7.09
2023-01-07T16:26:10.566Z,6.90
2023-01-07T16:31:17.847Z,6.73
2023-01-07T16:36:30.945Z,6.94
2023-01-07T16:41:35.278Z,6.38
2023-01-07T16:47:06.842Z,6.88
2023-01-07T16:52:16.682Z,6.94
2023-01-07T16:57:44.654Z,6.26
2023-01-07T17:03:00.508Z,6.90
2023-01-07T17:08:16.345Z,6.61
2023-01-07T17:13:23.639Z,6.82
2023-01-07T17:18:29.832Z,6.66
2023-01-07T17:23:43.643Z,6.06
2023-01-07T17:28:55.949Z,5.58
2023-01-07T17:39:04.810Z,6.28
2023-01-07T17:44:13.433Z,6.83
2023-01-07T17:49:26.848Z,6.65
2023-01-07T17:54:29.374Z,5.50
2023-01-07T17:59:32.343Z,5.96
2023-01-07T18:04:34.991Z,6.39
2023-01-07T18:09:37.485Z,5.97
2023-01-07T18:14:49.862Z,6.70
2023-01-07T18:19:53.395Z,6.53
2023-01-07T18:24:55.904Z,6.33
2023-01-07T18:29:58.414Z,5.77
2023-01-07T18:35:00.967Z,6.50
2023-01-07T18:40:04.438Z,6.57
2023-01-07T18:45:08.322Z,6.41
2023-01-07T18:50:18.772Z,5.84
2023-01-07T18:55:30.440Z,6.43
2023-01-07T19:00:34.659Z,6.80
2023-01-07T19:05:40.772Z,6.54
2023-01-07T19:10:45.626Z,6.35
2023-01-07T19:15:48.916Z,6.35
2023-01-07T19:20:52.240Z,6.75
2023-01-07T19:26:03.927Z,6.87
2023-01-07T19:31:08.874Z,6.69
2023-01-07T19:36:15.856Z,6.75
2023-01-07T19:41:21.456Z,6.38
2023-01-07T19:46:26.062Z,6.70
2023-01-07T19:51:29.361Z,6.25
2023-01-07T19:56:33.557Z,6.55
2023-01-07T20:01:38.314Z,6.86
2023-01-07T20:06:42.186Z,6.55
2023-01-07T20:11:55.539Z,6.55
2023-01-07T20:16:59.322Z,6.59
2023-01-07T20:22:02.650Z,6.18
2023-01-07T20:27:05.976Z,6.02
2023-01-07T20:32:09.529Z,6.76
2023-01-07T20:37:13.388Z,6.54
2023-01-07T20:42:16.666Z,5.77
2023-01-07T20:47:29.315Z,6.49
2023-01-07T20:52:41.233Z,5.56
2023-01-07T20:57:56.243Z,6.67
2023-01-07T21:02:59.844Z,5.73
2023-01-07T21:08:03.220Z,6.18
2023-01-07T21:13:06.766Z,6.78
2023-01-07T21:18:10.630Z,5.67
2023-01-07T21:23:13.898Z,6.27
2023-01-07T21:28:17.274Z,6.15
2023-01-07T21:33:21.959Z,6.63
2023-01-07T21:38:25.246Z,6.62
2023-01-07T21:43:38.925Z,6.17
2023-01-07T21:48:52.635Z,6.68
2023-01-07T21:53:57.684Z,6.86
2023-01-07T21:59:01.236Z,6.78
2023-01-07T22:04:04.626Z,5.67
2023-01-07T22:09:14.235Z,6.64
2023-01-07T22:14:19.838Z,6.76
2023-01-07T22:19:23.236Z,6.56
2023-01-07T22:24:26.879Z,5.43
2023-01-07T22:29:32.964Z,6.58
2023-01-07T22:34:36.472Z,5.98
2023-01-07T22:39:44.764Z,6.26
2023-01-07T22:45:09.423Z,6.55
2023-01-07T22:50:15.341Z,6.66
2023-01-07T22:55:19.389Z,6.79
2023-01-07T23:00:48.213Z,6.43
2023-01-07T23:05:52.166Z,6.20
2023-01-07T23:10:59.458Z,6.42
2023-01-07T23:16:05.272Z,6.43
2023-01-07T23:21:08.632Z,6.01
2023-01-07T23:26:15.791Z,6.08
2023-01-07T23:31:19.563Z,5.33
2023-01-07T23:36:23.011Z,6.05
2023-01-07T23:41:27.069Z,6.05
2023-01-07T23:46:32.239Z,6.17
2023-01-07T23:51:35.832Z,6.33
2023-01-07T23:56:39.149Z,6.06
